Creston, Montana
Current Conditions -  °F | °C
As of 2:55 PM on Friday 24 Oct 2014 (Local Time) from KGPI Reporting Station
Overcast Overcast  
Wind Chill: 52°   Ceiling: 6000
Heat Index: 52°   Visibility: 10mi
Dew Point: 36°   Wind: 8mph
Humidity: 54%   Direction: 160°SSE
Pressure: 30.09"   Gusts: NA
Location:  48.1017°N, 113.751°W
Report Text: KGPI 242055Z 16007KT 10SM OVC060 11/02 A3009 RMK AO2 SLP196 T01110022 55003
Loading
Personal Weather Stations






























Interactive Weather Map
Tropical Storm Tracking
New forecast layout! Learn more

10-Day Weather Forecast

Advertisements
Track Severe Weather on mobile